Glacier Park International Airport
KGPI : now visible

Airfield :











YOU CAN JOIN US ON...

 
LOGIN :

Register | Disclaimer

   EN    FR    IT 

 









Legend :    VFR   Marginal VFR   IFR   Intensive IFR   Very Intensive IFR
Visi :
Ceiling :
>= 8 km
>= 3000ft
5 to 8 km
1000 to 3000 ft
1500m to 5 km
500 to 1000 ft
800 to 1500m
200 to 500 ft
< 800m
< 200 ft
Symbols :   Thunderstorms  Fog  Heavy snow  Heavy precipitations  Wind > 20 kt






- Airport Elevation : 2977 ft
- IATA code : FCA


KGPI - Glacier Park International

CURRENT METAR :
  • 070855Z AUTO 34004KT 10SM CLR 09/06 A3033 RMK AO2 SLP266 T00890056 53006

EXPIRED METARs :
  • 070755Z AUTO 01007KT 10SM CLR 11/06 A3032 RMK AO2 SLP262 T01110061
  • 070655Z AUTO 35004KT 10SM CLR 13/06 A3032 RMK AO2 SLP261 T01330061 402390061

TAF KGPI
Valid from the 07 at 06:00 until the 08 at 06:00 UTC


070520Z 0706/0806 01006KT P6SM SCT250
FM071800 VRB04KT P6SM SKC
KZLC FIR / North America



MET'MAP, your aeronautical weather chart ! - Copyright ORBIFLY December 2007 - Disclaimer

ORBIFLY MET'MAP TEAM :

Programming & Development : Alexandra Zaïnal
Original concept : Baudouin d'Aumeries
Technical & hardware support : Manuel Goepfert
Assistance : Marc-Olivier Méhu




SOURCES & CREDITS :

   NOAA       Earth
Advisory